createdAt,value
2023-02-20T00:01:48.909Z,101062.26
2023-02-20T00:04:01.755Z,101061.02
2023-02-20T00:06:14.571Z,101063.42
2023-02-20T00:08:27.160Z,101063.75
2023-02-20T00:10:39.975Z,101060.99
2023-02-20T00:12:53.332Z,101059.64
2023-02-20T00:15:06.338Z,101059.27
2023-02-20T00:17:18.932Z,101059.63
2023-02-20T00:19:31.457Z,101054.17
2023-02-20T00:21:48.490Z,101046.83
2023-02-20T00:24:01.061Z,101042.92
2023-02-20T00:26:14.754Z,101041.23
2023-02-20T00:28:27.726Z,101039.55
2023-02-20T00:30:40.311Z,101033.58
2023-02-20T00:32:55.177Z,101027.44
2023-02-20T00:35:10.302Z,101023.70
2023-02-20T00:37:22.891Z,101022.52
2023-02-20T00:39:35.454Z,101016.02
2023-02-20T00:41:48.787Z,101015.70
2023-02-20T00:44:01.355Z,101019.31
2023-02-20T00:46:15.616Z,101017.09
2023-02-20T00:48:28.473Z,101018.12
2023-02-20T00:50:41.093Z,101017.44
2023-02-20T00:52:55.964Z,101015.71
2023-02-20T00:55:09.138Z,101016.07
2023-02-20T00:57:21.710Z,101017.27
2023-02-20T00:59:34.328Z,101014.35
2023-02-20T01:01:47.022Z,101010.95
2023-02-20T01:03:59.568Z,101013.01
2023-02-20T01:06:12.557Z,101012.52
2023-02-20T01:08:25.745Z,101009.95
2023-02-20T01:10:38.351Z,101015.29
2023-02-20T01:12:50.904Z,101021.42
2023-02-20T01:15:05.489Z,101017.52
2023-02-20T01:17:18.103Z,101012.55
2023-02-20T01:19:31.644Z,101009.65
2023-02-20T01:21:44.228Z,101003.16
2023-02-20T01:23:56.774Z,100998.20
2023-02-20T01:26:09.346Z,100998.20
2023-02-20T01:28:21.962Z,100996.51
2023-02-20T01:30:34.521Z,100994.29
2023-02-20T01:32:47.107Z,100988.65
2023-02-20T01:34:59.724Z,100983.36
2023-02-20T01:37:14.626Z,100980.12
2023-02-20T01:39:30.940Z,100977.21
2023-02-20T01:41:43.511Z,100973.45
2023-02-20T01:43:56.192Z,100965.26
2023-02-20T01:46:26.906Z,100956.88
2023-02-20T01:48:39.499Z,100954.29
2023-02-20T01:50:59.528Z,100954.97
2023-02-20T01:53:19.922Z,100953.10
2023-02-20T01:55:52.245Z,100955.66
2023-02-20T01:58:27.878Z,100957.36
2023-02-20T02:00:40.575Z,100954.95
2023-02-20T02:03:12.314Z,100950.84
2023-02-20T02:05:26.100Z,100949.64
2023-02-20T02:07:39.856Z,100949.64
2023-02-20T02:10:02.624Z,100952.03
2023-02-20T02:12:15.261Z,100944.66
2023-02-20T02:14:27.903Z,100942.78
2023-02-20T02:17:10.204Z,100931.81
2023-02-20T02:20:05.614Z,100925.67
2023-02-20T02:22:36.628Z,100925.48
2023-02-20T02:25:07.908Z,100923.25
2023-02-20T02:28:07.210Z,100914.34
2023-02-20T02:30:38.050Z,100912.27
2023-02-20T02:33:19.419Z,100915.86
2023-02-20T02:36:01.550Z,100918.06
2023-02-20T02:38:35.791Z,100913.75
2023-02-20T02:40:57.824Z,100907.23
2023-02-20T02:43:19.735Z,100895.94
2023-02-20T02:45:51.949Z,100890.64
2023-02-20T02:48:11.711Z,100885.86
2023-02-20T02:50:29.670Z,100892.69
2023-02-20T02:52:49.090Z,100903.14
2023-02-20T02:55:02.723Z,100897.50
2023-02-20T02:57:28.327Z,100893.23
2023-02-20T02:59:42.658Z,100892.39
2023-02-20T03:01:59.759Z,100889.13
2023-02-20T03:04:13.916Z,100882.14
2023-02-20T03:06:36.879Z,100877.52
2023-02-20T03:09:01.712Z,100869.98
2023-02-20T03:11:17.839Z,100865.72
2023-02-20T03:13:52.221Z,100862.99
2023-02-20T03:16:06.682Z,100864.02
2023-02-20T03:18:40.297Z,100862.46
2023-02-20T03:20:58.011Z,100865.21
2023-02-20T03:23:16.696Z,100859.91
2023-02-20T03:25:46.115Z,100859.74
2023-02-20T03:28:05.292Z,100864.55
2023-02-20T03:30:29.965Z,100867.95
2023-02-20T03:33:04.069Z,100874.83
2023-02-20T03:35:37.605Z,100876.55
2023-02-20T03:38:10.937Z,100877.41
2023-02-20T03:40:42.306Z,100871.95
2023-02-20T03:43:17.454Z,100869.39
2023-02-20T03:45:31.978Z,100869.40
2023-02-20T03:47:48.764Z,100866.15
2023-02-20T03:50:02.902Z,100859.98
2023-02-20T03:52:15.973Z,100857.09
2023-02-20T03:54:30.456Z,100854.00
2023-02-20T03:56:52.975Z,100859.15
2023-02-20T03:59:22.056Z,100857.44
2023-02-20T04:01:37.414Z,100850.59
2023-02-20T04:03:53.957Z,100849.04
2023-02-20T04:06:12.099Z,100844.93
2023-02-20T04:08:36.402Z,100841.67
2023-02-20T04:10:57.561Z,100831.74
2023-02-20T04:13:12.944Z,100814.45
2023-02-20T04:15:25.830Z,100807.77
2023-02-20T04:17:46.777Z,100805.52
2023-02-20T04:19:59.807Z,100801.93
2023-02-20T04:22:19.752Z,100804.31
2023-02-20T04:24:41.729Z,100812.71
2023-02-20T04:26:54.770Z,100815.11
2023-02-20T04:29:07.279Z,100813.91
2023-02-20T04:31:21.419Z,100816.48
2023-02-20T04:33:34.310Z,100822.98
2023-02-20T04:35:47.303Z,100824.35
2023-02-20T04:37:59.802Z,100820.93
2023-02-20T04:40:15.597Z,100820.56
2023-02-20T04:42:28.091Z,100820.91
2023-02-20T04:44:40.677Z,100819.36
2023-02-20T04:46:53.237Z,100812.86
2023-02-20T04:49:05.730Z,100802.75
2023-02-20T04:51:18.329Z,100796.07
2023-02-20T04:53:30.876Z,100794.02
2023-02-20T04:55:43.473Z,100794.19
2023-02-20T04:57:58.154Z,100795.05
2023-02-20T05:00:12.633Z,100799.15
2023-02-20T05:02:25.703Z,100790.92
2023-02-20T05:04:38.416Z,100782.70
2023-02-20T05:06:53.819Z,100779.09
2023-02-20T05:09:09.205Z,100781.16
2023-02-20T05:11:21.700Z,100776.84
2023-02-20T05:13:34.296Z,100777.70
2023-02-20T05:15:48.224Z,100774.78
2023-02-20T05:18:00.828Z,100777.34
2023-02-20T05:20:14.328Z,100774.08
2023-02-20T05:22:26.946Z,100775.27
2023-02-20T05:24:39.547Z,100767.70
2023-02-20T05:26:53.035Z,100763.40
2023-02-20T05:29:06.812Z,100758.59
2023-02-20T05:31:19.412Z,100755.82
2023-02-20T05:33:33.258Z,100755.11
2023-02-20T05:35:45.819Z,100752.86
2023-02-20T05:37:58.327Z,100759.89
2023-02-20T05:40:11.350Z,100760.20
2023-02-20T05:42:23.895Z,100755.39
2023-02-20T05:44:36.549Z,100752.45
2023-02-20T05:46:49.467Z,100753.79
2023-02-20T05:49:02.074Z,100760.64
2023-02-20T05:51:41.081Z,100759.25
2023-02-20T05:53:54.020Z,100755.81
2023-02-20T05:56:06.571Z,100752.70
2023-02-20T05:58:19.148Z,100750.42
2023-02-20T06:00:31.688Z,100750.05
2023-02-20T06:02:44.197Z,100739.23
2023-02-20T06:04:56.840Z,100734.04
2023-02-20T06:07:12.376Z,100728.01
2023-02-20T06:09:25.119Z,100730.41
2023-02-20T06:11:38.503Z,100730.91
2023-02-20T06:13:51.272Z,100738.95
2023-02-20T06:16:04.248Z,100738.42
2023-02-20T06:18:16.833Z,100733.40
2023-02-20T06:20:29.624Z,100728.94
2023-02-20T06:22:42.156Z,100725.46
2023-02-20T06:24:54.680Z,100717.05
2023-02-20T06:27:08.583Z,100727.98
2023-02-20T06:29:21.166Z,100725.88
2023-02-20T06:31:34.554Z,100727.23
2023-02-20T06:33:47.256Z,100728.02
2023-02-20T06:36:00.396Z,100718.91
2023-02-20T06:38:13.036Z,100715.10
2023-02-20T06:40:25.551Z,100706.99
2023-02-20T06:42:38.080Z,100708.14
2023-02-20T06:44:50.636Z,100704.17
2023-02-20T06:47:08.744Z,100707.41
2023-02-20T06:49:21.235Z,100706.15
2023-02-20T06:51:34.514Z,100700.11
2023-02-20T06:53:47.354Z,100695.58
2023-02-20T06:55:59.870Z,100694.29
2023-02-20T06:58:12.596Z,100694.05
2023-02-20T07:00:25.780Z,100696.75
2023-02-20T07:02:38.286Z,100703.25
2023-02-20T07:04:50.961Z,100699.98
2023-02-20T07:07:03.463Z,100694.63
2023-02-20T07:09:16.536Z,100686.16
2023-02-20T07:11:29.122Z,100681.48
2023-02-20T07:13:41.720Z,100679.52
2023-02-20T07:15:54.421Z,100680.69
2023-02-20T07:18:07.037Z,100677.02
2023-02-20T07:20:19.557Z,100675.24
2023-02-20T07:22:32.090Z,100671.09
2023-02-20T07:24:44.580Z,100668.12
2023-02-20T07:29:08.886Z,100665.11
2023-02-20T07:31:21.947Z,100654.75
2023-02-20T07:33:34.530Z,100650.73
2023-02-20T07:35:47.056Z,100643.60
2023-02-20T07:37:59.616Z,100637.16
2023-02-20T07:40:12.813Z,100634.48
2023-02-20T07:42:25.408Z,100627.33
2023-02-20T07:44:38.193Z,100621.89
2023-02-20T07:46:50.725Z,100611.15
2023-02-20T07:49:04.993Z,100604.16
2023-02-20T07:51:17.514Z,100597.64
2023-02-20T07:53:30.013Z,100589.16
2023-02-20T07:55:42.678Z,100586.83
2023-02-20T07:57:58.121Z,100589.82
2023-02-20T08:00:15.130Z,100585.56
2023-02-20T08:02:27.636Z,100583.18
2023-02-20T08:04:40.399Z,100583.63
2023-02-20T08:06:53.196Z,100579.86
2023-02-20T08:09:05.794Z,100582.16
2023-02-20T08:11:19.145Z,100582.36
2023-02-20T08:13:31.762Z,100579.67
2023-02-20T08:15:48.130Z,100567.30
2023-02-20T08:18:00.645Z,100566.05
2023-02-20T08:20:14.983Z,100561.59
2023-02-20T08:22:36.563Z,100552.42
2023-02-20T08:24:53.708Z,100560.37
2023-02-20T08:27:06.305Z,100551.91
2023-02-20T08:29:18.850Z,100550.84
2023-02-20T08:31:33.099Z,100550.85
2023-02-20T08:33:45.862Z,100549.52
2023-02-20T08:35:58.599Z,100546.17
2023-02-20T08:38:27.701Z,100540.41
2023-02-20T08:40:40.234Z,100540.56
2023-02-20T08:42:52.756Z,100534.86
2023-02-20T08:45:07.571Z,100529.76
2023-02-20T08:47:21.091Z,100531.27
2023-02-20T08:49:33.601Z,100522.00
2023-02-20T08:51:47.528Z,100510.52
2023-02-20T08:54:00.125Z,100510.64
2023-02-20T08:56:13.361Z,100501.76
2023-02-20T08:58:26.726Z,100497.34
2023-02-20T09:00:39.394Z,100489.97
2023-02-20T09:02:51.903Z,100491.20
2023-02-20T09:05:04.858Z,100481.22
2023-02-20T09:07:17.412Z,100481.88
2023-02-20T09:09:31.039Z,100485.87
2023-02-20T09:11:43.777Z,100487.84
2023-02-20T09:13:56.543Z,100476.74
2023-02-20T09:16:09.119Z,100483.20
2023-02-20T09:18:21.696Z,100476.38
2023-02-20T09:20:34.239Z,100468.71
2023-02-20T09:22:47.720Z,100467.23
2023-02-20T09:25:00.281Z,100473.54
2023-02-20T09:27:13.262Z,100469.95
2023-02-20T09:29:25.915Z,100455.59
2023-02-20T09:31:38.556Z,100438.13
2023-02-20T09:33:51.780Z,100426.33
2023-02-20T09:36:04.994Z,100430.11
2023-02-20T09:38:18.307Z,100427.32
2023-02-20T09:40:32.274Z,100426.02
2023-02-20T09:42:59.986Z,100425.61
2023-02-20T09:45:26.529Z,100419.17
2023-02-20T09:48:09.537Z,100416.23
2023-02-20T09:50:45.902Z,100411.95
2023-02-20T09:53:06.053Z,100408.52
2023-02-20T09:55:22.991Z,100421.11
2023-02-20T09:57:37.811Z,100417.36
2023-02-20T10:00:11.013Z,100413.88
2023-02-20T10:02:45.088Z,100408.91
2023-02-20T10:05:04.473Z,100396.20
2023-02-20T10:07:28.197Z,100377.98
2023-02-20T10:09:40.756Z,100360.02
2023-02-20T10:11:56.066Z,100347.41
2023-02-20T10:14:25.478Z,100335.79
2023-02-20T10:16:55.515Z,100331.56
2023-02-20T10:19:19.972Z,100336.19
2023-02-20T10:21:59.986Z,100329.43
2023-02-20T10:24:31.857Z,100312.36
2023-02-20T10:26:50.640Z,100310.57
2023-02-20T10:29:23.844Z,100299.33
2023-02-20T10:31:41.654Z,100283.75
2023-02-20T10:34:00.795Z,100274.73
2023-02-20T10:36:23.704Z,100265.09
2023-02-20T10:38:52.160Z,100251.63
2023-02-20T10:41:15.892Z,100251.17
2023-02-20T10:43:36.465Z,100253.02
2023-02-20T10:46:04.091Z,100252.20
2023-02-20T10:48:16.823Z,100251.12
2023-02-20T10:50:58.532Z,100232.02
2023-02-20T10:53:21.258Z,100223.37
2023-02-20T10:55:48.629Z,100222.13
2023-02-20T10:58:08.793Z,100221.01
2023-02-20T11:00:39.355Z,100227.17
2023-02-20T11:02:57.846Z,100227.70
2023-02-20T11:05:13.717Z,100219.16
2023-02-20T11:07:26.440Z,100202.27
2023-02-20T11:09:40.383Z,100211.33
2023-02-20T11:11:55.297Z,100209.39
2023-02-20T11:14:14.339Z,100206.42
2023-02-20T11:16:38.713Z,100199.52
2023-02-20T11:18:56.736Z,100183.05
2023-02-20T11:21:09.392Z,100191.98
2023-02-20T11:23:43.240Z,100193.58
2023-02-20T11:26:12.716Z,100183.98
2023-02-20T11:28:27.279Z,100171.35
2023-02-20T11:30:44.283Z,100172.54
2023-02-20T11:33:03.400Z,100168.66
2023-02-20T11:35:18.753Z,100167.68
2023-02-20T11:37:34.564Z,100156.54
2023-02-20T11:39:48.796Z,100161.86
2023-02-20T11:42:06.001Z,100159.27
2023-02-20T11:44:24.571Z,100153.17
2023-02-20T11:46:37.471Z,100143.70
2023-02-20T11:49:07.005Z,100135.84
2023-02-20T11:51:44.337Z,100123.82
2023-02-20T11:54:13.332Z,100108.35
2023-02-20T11:56:25.905Z,100104.73
2023-02-20T11:58:40.094Z,100101.21
2023-02-20T12:00:55.096Z,100097.92
2023-02-20T12:03:17.755Z,100082.47
2023-02-20T12:05:40.561Z,100077.99
2023-02-20T12:07:53.137Z,100074.39
2023-02-20T12:10:19.923Z,100057.18
2023-02-20T12:12:32.976Z,100052.02
2023-02-20T12:14:45.534Z,100047.21
2023-02-20T12:17:24.996Z,100044.73
2023-02-20T12:20:09.237Z,100039.74
2023-02-20T12:22:34.775Z,100031.18
2023-02-20T12:24:47.536Z,100006.45
2023-02-20T12:27:03.508Z,100003.39
2023-02-20T12:29:36.161Z,99990.29
2023-02-20T12:32:13.044Z,99988.36
2023-02-20T12:34:33.576Z,99979.63
2023-02-20T12:37:11.880Z,99968.45
2023-02-20T12:39:43.926Z,99965.33
2023-02-20T12:42:06.204Z,99955.98
2023-02-20T12:44:48.516Z,99944.99
2023-02-20T12:47:36.282Z,99945.02
2023-02-20T12:50:22.655Z,99940.20
2023-02-20T12:53:07.097Z,99926.89
2023-02-20T12:55:50.098Z,99926.69
2023-02-20T12:58:13.493Z,99925.54
2023-02-20T13:00:36.411Z,99919.82
2023-02-20T13:02:52.706Z,99901.08
2023-02-20T13:05:08.351Z,99898.61
2023-02-20T13:07:35.137Z,99895.23
2023-02-20T13:09:59.809Z,99895.34
2023-02-20T13:12:17.149Z,99881.57
2023-02-20T13:14:57.790Z,99888.84
2023-02-20T13:17:22.514Z,99891.53
2023-02-20T13:19:42.066Z,99884.90
2023-02-20T13:21:56.968Z,99869.36
2023-02-20T13:24:27.910Z,99859.14
2023-02-20T13:26:40.455Z,99858.00
2023-02-20T13:28:54.269Z,99850.73
2023-02-20T13:31:08.403Z,99850.98
2023-02-20T13:33:29.630Z,99842.63
2023-02-20T13:35:42.243Z,99846.77
2023-02-20T13:37:55.906Z,99829.69
2023-02-20T13:40:26.818Z,99843.07
2023-02-20T13:42:39.396Z,99846.86
2023-02-20T13:44:52.562Z,99842.30
2023-02-20T13:47:22.200Z,99843.88
2023-02-20T13:49:51.628Z,99838.91
2023-02-20T13:52:39.155Z,99842.98
2023-02-20T13:54:54.385Z,99849.89
2023-02-20T13:57:18.242Z,99855.84
2023-02-20T13:59:31.268Z,99855.88
2023-02-20T14:02:17.302Z,99855.80
2023-02-20T14:04:31.524Z,99853.17
2023-02-20T14:06:58.345Z,99851.16
2023-02-20T14:09:17.984Z,99846.86
2023-02-20T14:11:36.216Z,99843.77
2023-02-20T14:13:51.078Z,99850.77
2023-02-20T14:16:04.047Z,99852.71
2023-02-20T14:18:24.486Z,99843.92
2023-02-20T14:20:37.523Z,99844.29
2023-02-20T14:23:06.729Z,99833.31
2023-02-20T14:25:25.648Z,99825.06
2023-02-20T14:27:40.461Z,99819.34
2023-02-20T14:30:12.414Z,99815.95
2023-02-20T14:32:25.362Z,99810.38
2023-02-20T14:34:53.398Z,99810.61
2023-02-20T14:37:21.029Z,99806.70
2023-02-20T14:39:42.638Z,99815.68
2023-02-20T14:42:01.750Z,99803.98
2023-02-20T14:44:19.241Z,99800.83
2023-02-20T14:46:35.133Z,99809.52
2023-02-20T14:48:47.670Z,99809.52
2023-02-20T14:51:04.623Z,99797.55
2023-02-20T14:53:20.829Z,99800.69
2023-02-20T14:55:33.509Z,99811.94
2023-02-20T14:57:48.808Z,99815.13
2023-02-20T15:00:10.407Z,99819.15
2023-02-20T15:02:34.137Z,99816.75
2023-02-20T15:04:54.354Z,99823.80
2023-02-20T15:07:07.865Z,99823.71
2023-02-20T15:09:23.285Z,99823.05
2023-02-20T15:11:46.510Z,99830.89
2023-02-20T15:14:00.798Z,99832.15
2023-02-20T15:16:18.255Z,99834.58
2023-02-20T15:18:36.493Z,99841.17
2023-02-20T15:20:49.572Z,99837.34
2023-02-20T15:23:24.649Z,99839.83
2023-02-20T15:25:38.388Z,99839.67
2023-02-20T15:28:05.824Z,99837.70
2023-02-20T15:30:19.673Z,99842.36
2023-02-20T15:32:33.625Z,99843.48
2023-02-20T15:34:51.485Z,99848.42
2023-02-20T15:37:38.501Z,99845.02
2023-02-20T15:39:56.424Z,99846.17
2023-02-20T15:42:11.289Z,99847.59
2023-02-20T15:44:23.961Z,99852.26
2023-02-20T15:46:37.436Z,99849.26
2023-02-20T15:48:50.150Z,99850.23
2023-02-20T15:51:04.193Z,99854.55
2023-02-20T15:53:22.123Z,99851.12
2023-02-20T15:55:35.545Z,99851.77
2023-02-20T15:57:49.788Z,99860.38
2023-02-20T16:00:02.402Z,99860.98
2023-02-20T16:02:20.449Z,99857.23
2023-02-20T16:04:33.234Z,99854.97
2023-02-20T16:06:45.938Z,99863.81
2023-02-20T16:08:59.030Z,99867.40
2023-02-20T16:11:11.904Z,99871.71
2023-02-20T16:13:37.639Z,99874.71
2023-02-20T16:15:50.261Z,99874.25
2023-02-20T16:18:02.844Z,99880.95
2023-02-20T16:20:18.106Z,99885.11
2023-02-20T16:22:30.706Z,99881.27
2023-02-20T16:24:44.590Z,99883.52
2023-02-20T16:26:57.154Z,99888.85
2023-02-20T16:29:16.930Z,99893.81
2023-02-20T16:32:00.653Z,99894.38
2023-02-20T16:34:21.636Z,99894.73
2023-02-20T16:36:35.055Z,99893.41
2023-02-20T16:38:47.633Z,99896.77
2023-02-20T16:41:03.444Z,99903.98
2023-02-20T16:43:20.998Z,99905.57
2023-02-20T16:45:34.532Z,99904.88
2023-02-20T16:47:52.808Z,99907.09
2023-02-20T16:50:07.445Z,99900.79
2023-02-20T16:52:29.919Z,99915.98
2023-02-20T16:54:43.684Z,99920.88
2023-02-20T16:56:56.232Z,99914.18
2023-02-20T16:59:10.315Z,99919.73
2023-02-20T17:01:23.140Z,99925.07
2023-02-20T17:03:35.724Z,99931.44
2023-02-20T17:05:48.498Z,99931.21
2023-02-20T17:08:01.825Z,99931.04
2023-02-20T17:10:14.581Z,99939.20
2023-02-20T17:12:27.376Z,99936.20
2023-02-20T17:14:39.957Z,99936.77
2023-02-20T17:16:52.572Z,99938.75
2023-02-20T17:19:05.174Z,99931.66
2023-02-20T17:21:17.792Z,99939.21
2023-02-20T17:23:30.422Z,99943.64
2023-02-20T17:25:43.077Z,99945.39
2023-02-20T17:27:55.791Z,99942.86
2023-02-20T17:30:09.635Z,99947.05
2023-02-20T17:32:22.344Z,99940.09
2023-02-20T17:34:34.983Z,99946.86
2023-02-20T17:36:50.514Z,99950.27
2023-02-20T17:39:03.968Z,99956.67
2023-02-20T17:41:19.017Z,99958.36
2023-02-20T17:43:31.490Z,99963.79
2023-02-20T17:45:44.084Z,99966.11
2023-02-20T17:47:56.789Z,99967.79
2023-02-20T17:50:09.551Z,99970.07
2023-02-20T17:52:24.117Z,99968.91
2023-02-20T17:54:36.933Z,99969.64
2023-02-20T17:56:50.555Z,99975.77
2023-02-20T17:59:03.111Z,99971.27
2023-02-20T18:01:15.719Z,99971.63
2023-02-20T18:03:28.427Z,99970.08
2023-02-20T18:05:41.074Z,99965.84
2023-02-20T18:07:53.614Z,99950.90
2023-02-20T18:10:06.482Z,99943.96
2023-02-20T18:12:19.020Z,99941.61
2023-02-20T18:14:31.625Z,99940.04
2023-02-20T18:16:44.296Z,99941.94
2023-02-20T18:18:57.018Z,99941.60
2023-02-20T18:21:25.073Z,99938.77
2023-02-20T18:23:38.989Z,99941.52
2023-02-20T18:25:51.816Z,99949.46
2023-02-20T18:28:04.623Z,99944.94
2023-02-20T18:30:18.749Z,99941.26
2023-02-20T18:32:31.367Z,99941.58
2023-02-20T18:34:43.994Z,99932.94
2023-02-20T18:36:56.737Z,99928.85
2023-02-20T18:39:10.141Z,99918.83
2023-02-20T18:41:23.543Z,99912.73
2023-02-20T18:43:36.685Z,99916.22
2023-02-20T18:45:49.546Z,99916.70
2023-02-20T18:48:02.279Z,99926.27
2023-02-20T18:50:15.082Z,99919.73
2023-02-20T18:52:27.662Z,99928.13
2023-02-20T18:54:40.170Z,99930.57
2023-02-20T18:56:53.006Z,99920.56
2023-02-20T18:59:05.574Z,99926.60
2023-02-20T19:01:21.644Z,99916.95
2023-02-20T19:03:34.273Z,99913.11
2023-02-20T19:05:48.679Z,99912.66
2023-02-20T19:08:03.902Z,99908.09
2023-02-20T19:10:24.727Z,99896.84
2023-02-20T19:12:38.119Z,99891.48
2023-02-20T19:14:50.865Z,99880.39
2023-02-20T19:17:03.989Z,99879.23
2023-02-20T19:19:24.197Z,99874.18
2023-02-20T19:21:37.022Z,99879.36
2023-02-20T19:23:49.930Z,99887.94
2023-02-20T19:26:02.871Z,99886.16
2023-02-20T19:28:15.421Z,99883.59
2023-02-20T19:30:27.993Z,99890.77
2023-02-20T19:32:41.034Z,99897.80
2023-02-20T19:34:53.666Z,99901.45
2023-02-20T19:37:06.177Z,99902.42
2023-02-20T19:39:18.739Z,99901.25
2023-02-20T19:41:33.246Z,99901.25
2023-02-20T19:43:48.813Z,99902.67
2023-02-20T19:46:01.392Z,99899.38
2023-02-20T19:48:15.557Z,99893.95
2023-02-20T19:50:30.961Z,99900.58
2023-02-20T19:52:44.019Z,99897.36
2023-02-20T19:54:56.703Z,99902.29
2023-02-20T19:57:09.905Z,99898.19
2023-02-20T19:59:22.860Z,99898.05
2023-02-20T20:01:35.511Z,99900.41
2023-02-20T20:03:48.749Z,99906.22
2023-02-20T20:06:01.642Z,99902.05
2023-02-20T20:08:14.298Z,99898.14
2023-02-20T20:10:30.015Z,99890.59
2023-02-20T20:12:48.277Z,99902.82
2023-02-20T20:15:00.971Z,99894.58
2023-02-20T20:17:13.707Z,99899.27
2023-02-20T20:19:26.266Z,99897.93
2023-02-20T20:21:38.937Z,99902.09
2023-02-20T20:23:54.880Z,99898.19
2023-02-20T20:26:07.513Z,99893.52
2023-02-20T20:28:20.147Z,99894.17
2023-02-20T20:30:34.047Z,99885.09
2023-02-20T20:32:49.591Z,99883.79
2023-02-20T20:35:02.429Z,99877.98
2023-02-20T20:37:15.937Z,99875.80
2023-02-20T20:39:30.211Z,99865.10
2023-02-20T20:41:45.345Z,99874.27
2023-02-20T20:44:04.284Z,99873.16
2023-02-20T20:46:17.565Z,99878.44
2023-02-20T20:48:30.719Z,99882.85
2023-02-20T20:50:43.302Z,99884.95
2023-02-20T20:53:01.820Z,99879.86
2023-02-20T20:55:14.537Z,99879.31
2023-02-20T20:57:31.077Z,99877.91
2023-02-20T20:59:43.601Z,99876.59
2023-02-20T21:01:56.161Z,99869.34
2023-02-20T21:04:10.590Z,99870.78
2023-02-20T21:06:23.465Z,99873.77
2023-02-20T21:08:36.299Z,99874.62
2023-02-20T21:10:48.955Z,99878.08
2023-02-20T21:13:01.792Z,99881.36
2023-02-20T21:15:15.227Z,99874.49
2023-02-20T21:17:27.938Z,99874.75
2023-02-20T21:19:41.439Z,99870.86
2023-02-20T21:21:54.493Z,99871.95
2023-02-20T21:24:07.485Z,99868.85
2023-02-20T21:26:20.406Z,99864.46
2023-02-20T21:28:33.088Z,99868.96
2023-02-20T21:30:47.489Z,99868.70
2023-02-20T21:33:00.412Z,99868.23
2023-02-20T21:35:15.016Z,99862.42
2023-02-20T21:37:28.068Z,99857.17
2023-02-20T21:39:41.571Z,99858.87
2023-02-20T21:42:13.106Z,99857.16
2023-02-20T21:44:26.468Z,99860.08
2023-02-20T21:46:39.033Z,99865.77
2023-02-20T21:48:51.667Z,99866.52
2023-02-20T21:51:04.257Z,99861.33
2023-02-20T21:53:17.188Z,99860.42
2023-02-20T21:55:30.360Z,99856.61
2023-02-20T21:57:43.034Z,99855.05
2023-02-20T21:59:55.615Z,99864.80
2023-02-20T22:02:14.971Z,99863.46
2023-02-20T22:04:27.466Z,99864.39
2023-02-20T22:06:40.956Z,99861.95
2023-02-20T22:09:11.842Z,99854.12
2023-02-20T22:11:42.799Z,99860.60
2023-02-20T22:14:14.087Z,99861.42
2023-02-20T22:16:44.957Z,99857.17
2023-02-20T22:19:16.107Z,99850.19
2023-02-20T22:21:47.124Z,99848.07
2023-02-20T22:24:22.289Z,99841.94
2023-02-20T22:26:55.918Z,99842.27
2023-02-20T22:29:27.166Z,99843.12
2023-02-20T22:31:58.166Z,99843.49
2023-02-20T22:34:29.836Z,99835.55
2023-02-20T22:37:01.607Z,99829.59
2023-02-20T22:39:34.852Z,99831.29
2023-02-20T22:42:06.248Z,99834.40
2023-02-20T22:44:37.638Z,99836.77
2023-02-20T22:47:09.293Z,99839.84
2023-02-20T22:49:40.469Z,99838.55
2023-02-20T22:52:11.809Z,99833.50
2023-02-20T22:54:53.034Z,99834.06
2023-02-20T22:57:30.541Z,99835.39
2023-02-20T23:00:02.750Z,99843.90
2023-02-20T23:02:33.581Z,99839.42
2023-02-20T23:05:14.793Z,99839.80
2023-02-20T23:07:47.301Z,99835.65
2023-02-20T23:10:18.606Z,99835.16
2023-02-20T23:12:49.794Z,99832.77
2023-02-20T23:15:21.278Z,99826.45
2023-02-20T23:17:52.437Z,99826.42
2023-02-20T23:20:25.957Z,99826.08
2023-02-20T23:22:57.211Z,99827.69
2023-02-20T23:25:28.346Z,99817.59
2023-02-20T23:27:59.619Z,99822.69
2023-02-20T23:30:31.754Z,99817.21
2023-02-20T23:33:02.803Z,99820.88
2023-02-20T23:35:35.273Z,99817.59
2023-02-20T23:38:08.995Z,99817.51
2023-02-20T23:40:40.492Z,99814.94
2023-02-20T23:43:11.777Z,99817.90
2023-02-20T23:45:43.406Z,99819.04
2023-02-20T23:48:16.429Z,99820.40
2023-02-20T23:50:47.511Z,99823.90
2023-02-20T23:53:18.506Z,99826.92
2023-02-20T23:55:50.147Z,99826.64
2023-02-20T23:58:21.292Z,99828.95
